Time;durP1;ratioP1;P1;durP2;ratioP2;P2;SDS_P1;SDS_P2;PMS_P1;PMS_P2;Temp;Humidity;BMP_temperature;BMP_pressure;BME280_temperature;BME280_humidity;BME280_pressure;Samples;Min_cycle;Max_cycle;Signal;HPM_P1;HPM_P2
2024/01/18 00:01:39;;;;;;;32.85;18.85;;;-1.10;99.90;;;;;;5034825;28;20174;-76
2024/01/18 00:04:05;;;;;;;32.45;16.45;;;-1.20;99.90;;;;;;5034783;28;20059;-80
2024/01/18 00:06:34;;;;;;;30.25;17.60;;;-1.20;99.90;;;;;;5050688;28;20076;-81
2024/01/18 00:09:00;;;;;;;26.27;17.30;;;-0.90;99.90;;;;;;5036499;28;20500;-80
2024/01/18 00:11:27;;;;;;;27.98;17.48;;;-1.20;99.90;;;;;;5056207;28;20102;-80
2024/01/18 00:13:56;;;;;;;23.73;16.73;;;-1.20;99.90;;;;;;5054688;28;20056;-80
2024/01/18 00:16:22;;;;;;;29.40;17.65;;;-1.20;99.90;;;;;;5033809;28;20049;-80
2024/01/18 00:18:51;;;;;;;27.00;17.00;;;-1.20;99.90;;;;;;5059529;28;20424;-81
2024/01/18 00:21:20;;;;;;;30.80;16.42;;;-1.20;99.90;;;;;;5041236;28;20054;-80
2024/01/18 00:23:48;;;;;;;26.65;16.20;;;-1.20;99.90;;;;;;5047065;28;20053;-80
2024/01/18 00:26:14;;;;;;;29.13;16.38;;;-1.10;99.90;;;;;;5052586;28;20408;-81
2024/01/18 00:28:40;;;;;;;24.80;16.10;;;-1.20;99.90;;;;;;5062123;28;20040;-81
2024/01/18 00:31:05;;;;;;;26.20;15.88;;;-1.20;99.90;;;;;;5050138;28;20493;-80
2024/01/18 00:33:31;;;;;;;22.17;15.70;;;-0.60;99.90;;;;;;5051114;28;20175;-79
2024/01/18 00:35:57;;;;;;;24.65;15.32;;;-1.30;99.90;;;;;;5063266;28;20051;-79
2024/01/18 00:38:22;;;;;;;24.52;15.23;;;-1.30;99.90;;;;;;5046383;28;20037;-78
2024/01/18 00:40:48;;;;;;;27.20;15.38;;;-1.30;99.90;;;;;;5061720;28;20127;-80
2024/01/18 00:43:13;;;;;;;25.70;15.32;;;-1.30;99.90;;;;;;5066489;28;20057;-79
2024/01/18 00:45:39;;;;;;;28.35;16.88;;;-1.30;99.90;;;;;;5048977;28;20454;-80
2024/01/18 00:48:05;;;;;;;27.73;16.10;;;-0.20;99.90;;;;;;5062650;28;20444;-79
2024/01/18 00:50:30;;;;;;;27.67;15.45;;;-1.30;99.90;;;;;;5052471;28;20047;-81
2024/01/18 00:52:56;;;;;;;20.90;12.90;;;-1.30;99.90;;;;;;5070853;28;20095;-80
2024/01/18 00:55:22;;;;;;;27.92;13.35;;;-1.30;99.90;;;;;;5065566;28;20048;-79
2024/01/18 00:57:47;;;;;;;23.25;11.75;;;-1.20;99.90;;;;;;5056872;28;20407;-80
2024/01/18 01:00:14;;;;;;;17.45;10.77;;;-1.30;99.90;;;;;;5055913;28;20491;-79
2024/01/18 01:02:39;;;;;;;16.42;9.98;;;-1.30;99.90;;;;;;5051280;28;20060;-80
2024/01/18 01:05:05;;;;;;;15.93;9.25;;;-0.40;99.90;;;;;;5033875;28;20056;-80
2024/01/18 01:07:31;;;;;;;16.63;8.50;;;-1.20;99.90;;;;;;5054911;28;20052;-80
2024/01/18 01:09:57;;;;;;;22.52;11.07;;;-1.20;99.90;;;;;;5060030;28;20387;-80
2024/01/18 01:12:22;;;;;;;16.58;9.15;;;-1.20;99.90;;;;;;5067384;28;20052;-79
2024/01/18 01:14:48;;;;;;;14.52;7.32;;;-1.10;99.90;;;;;;5040958;28;20064;-81
2024/01/18 01:17:14;;;;;;;11.57;6.80;;;-1.10;99.90;;;;;;5047441;28;20053;-80
2024/01/18 01:19:40;;;;;;;13.63;8.65;;;-0.50;99.90;;;;;;5037612;28;20041;-80
2024/01/18 01:22:06;;;;;;;17.20;8.00;;;-1.40;99.90;;;;;;5058569;28;20048;-80
2024/01/18 01:24:38;;;;;;;12.80;7.63;;;-1.20;99.90;;;;;;5052196;28;20059;-81
2024/01/18 01:27:05;;;;;;;17.58;7.68;;;-1.10;99.90;;;;;;5064742;28;20041;-79
2024/01/18 01:29:30;;;;;;;15.63;8.05;;;-1.10;99.90;;;;;;5054490;28;20045;-81
2024/01/18 01:31:56;;;;;;;15.00;7.72;;;-1.20;99.90;;;;;;5060407;28;20127;-80
2024/01/18 01:34:22;;;;;;;11.93;7.00;;;-1.00;99.90;;;;;;5065845;28;20072;-81
2024/01/18 01:36:47;;;;;;;11.82;7.18;;;-1.10;99.90;;;;;;5050935;28;20041;-80
2024/01/18 01:39:13;;;;;;;11.23;7.82;;;-1.10;99.90;;;;;;5055199;28;20045;-80
2024/01/18 01:41:39;;;;;;;12.63;5.97;;;-0.30;99.90;;;;;;5049973;28;20103;-82
2024/01/18 01:44:05;;;;;;;13.82;6.82;;;-1.00;99.90;;;;;;5068136;28;20426;-80
2024/01/18 01:46:31;;;;;;;10.23;5.22;;;-1.20;99.90;;;;;;5069372;28;20048;-81
2024/01/18 01:49:02;;;;;;;12.75;5.95;;;-1.10;99.90;;;;;;5050209;28;20048;-81
2024/01/18 01:51:49;;;;;;;10.38;5.68;;;-0.20;99.90;;;;;;5060450;28;20041;-81
2024/01/18 01:54:20;;;;;;;9.70;3.90;;;-1.10;99.90;;;;;;5071066;28;20127;-81
2024/01/18 01:56:51;;;;;;;8.13;4.28;;;-1.10;99.90;;;;;;5047631;28;20090;-81
2024/01/18 01:59:17;;;;;;;10.35;4.60;;;-1.10;99.90;;;;;;5061122;28;20051;-81
2024/01/18 02:01:44;;;;;;;10.55;3.90;;;-1.10;99.90;;;;;;5053070;28;20072;-79
2024/01/18 02:04:11;;;;;;;9.43;4.38;;;-1.10;99.90;;;;;;5041984;28;20041;-81
2024/01/18 02:06:41;;;;;;;11.00;4.50;;;-1.10;99.90;;;;;;5061582;28;20044;-81
2024/01/18 02:09:07;;;;;;;11.45;3.75;;;-1.10;99.90;;;;;;5065608;28;20069;-80
2024/01/18 02:11:33;;;;;;;9.40;3.60;;;-0.20;99.90;;;;;;5064314;28;20557;-80
2024/01/18 02:13:58;;;;;;;11.23;4.25;;;-1.10;99.90;;;;;;5059586;28;20132;-81
2024/01/18 02:16:24;;;;;;;8.85;4.95;;;-0.80;99.90;;;;;;5041935;28;20041;-80
2024/01/18 02:18:50;;;;;;;8.43;3.58;;;-0.40;99.90;;;;;;5043237;28;20047;-81
2024/01/18 02:21:16;;;;;;;8.73;3.75;;;-0.30;99.90;;;;;;5059023;28;20049;-81
2024/01/18 02:23:47;;;;;;;8.43;2.95;;;0.10;99.90;;;;;;5020072;28;20071;-81
2024/01/18 02:26:16;;;;;;;;;;;-1.00;99.90;;;;;;5058292;28;20733;-81
2024/01/18 02:28:57;;;;;;;8.13;2.45;;;0.20;99.90;;;;;;5053568;28;19928;-81
2024/01/18 02:31:24;;;;;;;8.13;3.53;;;-1.00;99.90;;;;;;5054217;28;20040;-80
2024/01/18 02:33:53;;;;;;;10.25;5.20;;;-1.10;99.90;;;;;;5054055;28;20394;-80
2024/01/18 02:36:20;;;;;;;6.90;3.00;;;-1.10;99.90;;;;;;5052224;28;20178;-81
2024/01/18 02:38:46;;;;;;;6.30;1.80;;;-1.10;99.90;;;;;;5052459;28;20045;-81
2024/01/18 02:41:12;;;;;;;9.15;4.20;;;-1.20;99.90;;;;;;5072175;28;20040;-80
2024/01/18 02:43:38;;;;;;;6.57;2.75;;;-1.20;99.90;;;;;;5072590;28;20044;-81
2024/01/18 02:46:04;;;;;;;7.05;2.70;;;-1.10;99.90;;;;;;5072931;28;20060;-80
2024/01/18 02:48:30;;;;;;;12.27;4.60;;;-1.20;99.90;;;;;;5038727;28;20167;-80
2024/01/18 02:50:59;;;;;;;7.45;2.83;;;-1.20;99.90;;;;;;5055513;28;20406;-81
2024/01/18 02:53:25;;;;;;;7.68;1.80;;;-1.20;99.90;;;;;;5052542;28;20056;-81
2024/01/18 02:55:54;;;;;;;8.95;3.15;;;-1.30;99.90;;;;;;5052799;28;20053;-81
2024/01/18 02:58:21;;;;;;;6.15;2.90;;;-0.70;99.90;;;;;;5036463;28;20048;-81
2024/01/18 03:00:47;;;;;;;8.27;2.30;;;-1.30;99.90;;;;;;5038061;28;20051;-80
2024/01/18 03:03:14;;;;;;;9.75;3.30;;;-1.20;99.90;;;;;;5057263;28;20044;-80
2024/01/18 03:05:40;;;;;;;8.05;2.33;;;-1.30;99.90;;;;;;5061981;28;20056;-81
2024/01/18 03:08:06;;;;;;;5.57;1.83;;;-1.30;99.90;;;;;;5044250;28;20408;-81
2024/01/18 03:10:32;;;;;;;5.90;2.40;;;-1.40;99.90;;;;;;5067888;28;20044;-80
2024/01/18 03:12:58;;;;;;;5.00;1.67;;;-1.30;99.90;;;;;;5055481;28;20470;-81
2024/01/18 03:15:23;;;;;;;7.35;2.78;;;-1.40;99.90;;;;;;5053991;28;20053;-80
2024/01/18 03:17:50;;;;;;;5.47;1.95;;;-1.40;99.90;;;;;;5072257;28;20119;-81
2024/01/18 03:20:15;;;;;;;4.15;1.80;;;-1.50;99.90;;;;;;5067452;28;20123;-81
2024/01/18 03:22:41;;;;;;;6.60;2.45;;;-1.50;99.90;;;;;;5063801;28;20053;-81
2024/01/18 03:25:10;;;;;;;6.55;2.15;;;-1.50;99.90;;;;;;5052793;28;20065;-82
2024/01/18 03:27:36;;;;;;;6.90;2.58;;;-1.50;99.90;;;;;;5071733;28;20071;-81
2024/01/18 03:30:02;;;;;;;9.23;2.42;;;-1.50;99.90;;;;;;5051315;28;20059;-81
2024/01/18 03:32:27;;;;;;;6.70;1.40;;;-1.50;99.90;;;;;;5050649;28;20037;-81
2024/01/18 03:34:53;;;;;;;6.40;2.05;;;-1.50;99.90;;;;;;5067546;28;20151;-80
2024/01/18 03:37:19;;;;;;;6.38;2.25;;;-0.30;99.90;;;;;;5063385;28;20053;-82
2024/01/18 03:39:47;;;;;;;5.35;2.08;;;-1.30;99.90;;;;;;5068750;28;20052;-82
2024/01/18 03:42:14;;;;;;;6.38;1.90;;;-1.50;99.90;;;;;;5071839;28;20047;-81
2024/01/18 03:44:40;;;;;;;8.73;1.52;;;-1.20;99.90;;;;;;5071476;28;20051;-82
2024/01/18 03:47:05;;;;;;;7.80;3.28;;;-1.20;99.90;;;;;;5065782;28;20053;-81
2024/01/18 03:49:31;;;;;;;5.72;2.30;;;-0.40;99.90;;;;;;5067706;28;20131;-81
2024/01/18 03:51:57;;;;;;;7.22;2.05;;;-1.40;99.90;;;;;;5064796;28;20052;-82
2024/01/18 03:54:23;;;;;;;7.57;2.15;;;-1.40;99.90;;;;;;5058596;28;20397;-81
2024/01/18 03:56:48;;;;;;;7.63;1.85;;;-1.40;99.90;;;;;;5070466;28;20055;-81
2024/01/18 03:59:14;;;;;;;8.88;1.23;;;-0.30;99.90;;;;;;5061579;28;20047;-81
2024/01/18 04:01:40;;;;;;;4.47;1.45;;;-1.40;99.90;;;;;;5065005;28;20051;-81
2024/01/18 04:04:09;;;;;;;4.07;1.35;;;-1.40;99.90;;;;;;5071478;28;20553;-82
2024/01/18 04:06:35;;;;;;;6.30;1.65;;;-0.80;99.90;;;;;;5064759;28;20037;-82
2024/01/18 04:09:00;;;;;;;3.35;0.95;;;-1.30;99.90;;;;;;5061682;28;20485;-83
2024/01/18 04:11:26;;;;;;;3.42;1.10;;;-1.30;99.90;;;;;;5055897;28;20055;-82
2024/01/18 04:13:52;;;;;;;3.53;1.30;;;-0.50;99.90;;;;;;5058423;28;20044;-81
2024/01/18 04:16:18;;;;;;;7.55;1.08;;;-1.20;99.90;;;;;;5034652;28;20044;-82
2024/01/18 04:18:44;;;;;;;5.32;1.23;;;-0.40;99.90;;;;;;5051221;28;20515;-81
2024/01/18 04:21:10;;;;;;;4.20;1.17;;;-1.20;99.90;;;;;;5063489;28;20079;-82
2024/01/18 04:23:36;;;;;;;5.05;1.35;;;-1.20;99.90;;;;;;5066476;28;20411;-82
2024/01/18 04:26:03;;;;;;;4.15;0.80;;;-0.10;99.90;;;;;;5055765;28;20183;-82
2024/01/18 04:28:28;;;;;;;3.35;1.00;;;-1.20;99.90;;;;;;5053935;28;20040;-82
2024/01/18 04:30:54;;;;;;;5.70;1.52;;;-1.10;99.90;;;;;;5069851;28;20059;-82
2024/01/18 04:33:20;;;;;;;5.22;0.90;;;-0.50;99.90;;;;;;5070541;28;20045;-82
2024/01/18 04:35:46;;;;;;;7.03;1.83;;;0.00;99.90;;;;;;5069418;28;20044;-81
2024/01/18 04:38:13;;;;;;;2.85;0.95;;;-1.10;99.90;;;;;;5052206;28;20048;-82
2024/01/18 04:40:39;;;;;;;2.47;0.80;;;-1.00;99.90;;;;;;5052011;28;20048;-81
2024/01/18 04:43:04;;;;;;;3.72;1.02;;;-1.00;99.90;;;;;;5034295;28;20063;-82
2024/01/18 04:45:30;;;;;;;6.53;1.20;;;-1.00;99.90;;;;;;5054394;28;20045;-82
2024/01/18 04:47:57;;;;;;;5.70;1.00;;;-1.00;99.90;;;;;;5050773;28;20057;-81
2024/01/18 04:50:26;;;;;;;6.18;0.80;;;-0.90;99.90;;;;;;5059696;28;20045;-81
2024/01/18 04:52:55;;;;;;;5.80;1.20;;;-0.90;99.90;;;;;;5057879;28;20545;-82
2024/01/18 04:55:21;;;;;;;2.92;0.65;;;-1.00;99.90;;;;;;5062114;28;20099;-82
2024/01/18 04:57:49;;;;;;;5.35;0.88;;;-1.00;99.90;;;;;;5060093;28;20045;-82
2024/01/18 05:00:15;;;;;;;8.38;0.90;;;-1.00;99.90;;;;;;5052489;28;20055;-82
2024/01/18 05:02:41;;;;;;;4.78;1.40;;;-1.00;99.90;;;;;;5059554;28;20040;-81
2024/01/18 05:05:08;;;;;;;25.25;6.57;;;-1.00;99.90;;;;;;5056494;28;20049;-81
2024/01/18 05:07:38;;;;;;;35.20;10.40;;;-1.00;99.90;;;;;;5049879;28;20483;-83
2024/01/18 05:10:05;;;;;;;36.03;10.90;;;-0.30;99.90;;;;;;5067728;28;20044;-81
2024/01/18 05:12:33;;;;;;;8.10;1.92;;;-1.10;99.90;;;;;;5059183;28;20163;-82
2024/01/18 05:14:59;;;;;;;5.32;1.65;;;-0.10;99.90;;;;;;5064247;28;20045;-82
2024/01/18 05:17:34;;;;;;;11.50;1.77;;;-1.10;99.90;;;;;;5061696;28;20056;-81
2024/01/18 05:20:02;;;;;;;5.80;1.70;;;-1.00;99.90;;;;;;5064424;28;20049;-82
2024/01/18 05:22:29;;;;;;;6.68;1.10;;;-1.20;99.90;;;;;;5051122;28;20106;-82
2024/01/18 05:24:55;;;;;;;6.68;1.50;;;-0.50;99.90;;;;;;5055456;28;20073;-81
2024/01/18 05:27:23;;;;;;;3.42;0.80;;;-1.30;99.90;;;;;;5037923;28;20080;-82
2024/01/18 05:29:48;;;;;;;3.30;0.70;;;-1.20;99.90;;;;;;5054896;28;20098;-82
2024/01/18 05:32:14;;;;;;;5.10;1.02;;;-0.40;99.90;;;;;;5056284;28;20049;-82
2024/01/18 05:34:40;;;;;;;6.22;1.10;;;-1.30;99.90;;;;;;5054184;28;20507;-82
2024/01/18 05:37:06;;;;;;;5.35;0.98;;;-1.30;99.90;;;;;;5057200;28;20047;-82
2024/01/18 05:39:31;;;;;;;3.72;0.82;;;-0.50;99.90;;;;;;5063817;28;20040;-82
2024/01/18 05:41:57;;;;;;;2.65;0.82;;;-1.00;99.90;;;;;;5065054;28;20045;-81
2024/01/18 05:44:23;;;;;;;4.43;1.00;;;-1.20;99.90;;;;;;5066493;28;20045;-80
2024/01/18 05:46:48;;;;;;;2.92;1.10;;;-1.30;99.90;;;;;;5070031;28;20044;-82
2024/01/18 05:49:14;;;;;;;4.97;1.50;;;-0.90;99.90;;;;;;5064155;28;20081;-82
2024/01/18 05:51:41;;;;;;;6.63;1.30;;;-1.20;99.90;;;;;;5067374;28;20076;-81
2024/01/18 05:54:07;;;;;;;6.93;0.88;;;-1.00;99.90;;;;;;5061436;28;20113;-81
2024/01/18 05:56:32;;;;;;;4.75;0.70;;;-1.20;99.90;;;;;;5064028;28;20044;-82
2024/01/18 05:58:58;;;;;;;4.82;1.05;;;-0.40;99.90;;;;;;5067002;28;20043;-82
2024/01/18 06:01:24;;;;;;;3.78;0.70;;;-1.30;99.90;;;;;;5065948;28;20045;-81
2024/01/18 06:03:49;;;;;;;3.08;0.88;;;-1.30;99.90;;;;;;5066189;28;20104;-81
2024/01/18 06:06:15;;;;;;;6.25;1.83;;;-1.30;99.90;;;;;;5064460;28;20128;-82
2024/01/18 06:08:41;;;;;;;7.85;1.95;;;-1.20;99.90;;;;;;5068374;28;20047;-81
2024/01/18 06:11:07;;;;;;;6.75;1.55;;;-1.30;99.90;;;;;;5063215;28;20041;-83
2024/01/18 06:13:33;;;;;;;8.15;2.20;;;-1.30;99.90;;;;;;5062950;28;20052;-82
2024/01/18 06:15:59;;;;;;;2.80;1.02;;;-1.10;99.90;;;;;;5072366;28;20040;-80
2024/01/18 06:18:24;;;;;;;3.03;0.90;;;-1.20;99.90;;;;;;5062786;28;20392;-81
2024/01/18 06:20:50;;;;;;;5.63;0.85;;;-0.30;99.90;;;;;;5064061;28;20040;-81
2024/01/18 06:23:16;;;;;;;4.32;0.77;;;-1.20;99.90;;;;;;5062074;28;20103;-82
2024/01/18 06:25:41;;;;;;;4.70;1.02;;;-0.80;99.90;;;;;;5072646;28;20056;-82
2024/01/18 06:28:07;;;;;;;8.13;0.80;;;-1.10;99.90;;;;;;5060670;28;20041;-82
2024/01/18 06:30:33;;;;;;;4.40;1.63;;;-0.70;99.90;;;;;;5067388;28;20131;-80
2024/01/18 06:32:58;;;;;;;4.63;0.88;;;-0.60;99.90;;;;;;5060381;28;20126;-81
2024/01/18 06:35:24;;;;;;;3.08;0.70;;;-0.30;99.90;;;;;;5062166;28;20472;-81
2024/01/18 06:37:49;;;;;;;4.47;0.60;;;-1.10;99.90;;;;;;5058974;28;20045;-81
2024/01/18 06:40:17;;;;;;;5.43;0.70;;;-1.10;99.90;;;;;;5066574;28;20052;-82
2024/01/18 06:42:43;;;;;;;3.30;1.00;;;-1.10;99.90;;;;;;5067012;28;20059;-81
2024/01/18 06:45:09;;;;;;;4.40;1.17;;;-0.80;99.90;;;;;;5063387;28;20044;-82
2024/01/18 06:47:35;;;;;;;5.68;1.30;;;-1.10;99.90;;;;;;5072877;28;20056;-81
2024/01/18 06:50:01;;;;;;;6.22;1.75;;;-0.80;99.90;;;;;;5059904;28;20044;-83
2024/01/18 06:52:26;;;;;;;5.30;1.10;;;-1.20;99.90;;;;;;5058150;28;20395;-81
2024/01/18 06:54:52;;;;;;;8.05;2.45;;;-1.20;99.90;;;;;;5051936;28;20033;-81
2024/01/18 06:57:18;;;;;;;4.72;1.60;;;-1.20;99.90;;;;;;5058554;28;20045;-82
2024/01/18 06:59:47;;;;;;;5.78;1.60;;;-1.20;99.90;;;;;;5053905;28;20057;-82
2024/01/18 07:02:13;;;;;;;4.72;1.60;;;-1.10;99.90;;;;;;5056846;28;20044;-80
2024/01/18 07:04:39;;;;;;;6.38;1.63;;;-1.30;99.90;;;;;;5063439;28;20373;-82
2024/01/18 07:07:04;;;;;;;6.10;1.42;;;-1.20;99.90;;;;;;5071736;28;20051;-81
2024/01/18 07:09:32;;;;;;;4.13;1.17;;;-0.70;99.90;;;;;;5066452;28;20117;-80
2024/01/18 07:11:58;;;;;;;3.63;1.13;;;-1.30;99.90;;;;;;5058571;28;20438;-80
2024/01/18 07:14:23;;;;;;;4.07;1.23;;;-0.30;99.90;;;;;;5053541;28;20048;-79
2024/01/18 07:16:49;;;;;;;3.55;0.90;;;-1.30;99.90;;;;;;5057701;28;20052;-80
2024/01/18 07:19:15;;;;;;;5.22;0.77;;;-0.10;99.90;;;;;;5067967;28;20119;-83
2024/01/18 07:21:40;;;;;;;3.42;0.80;;;-1.30;99.90;;;;;;5052406;28;20057;-79
2024/01/18 07:24:06;;;;;;;4.47;0.82;;;-1.30;99.90;;;;;;5060879;28;20048;-79
2024/01/18 07:26:32;;;;;;;4.07;0.95;;;-1.30;99.90;;;;;;5059704;28;20049;-79
2024/01/18 07:28:57;;;;;;;4.68;0.82;;;-1.30;99.90;;;;;;5066801;28;20048;-80
2024/01/18 07:31:23;;;;;;;1.30;0.50;;;-1.20;99.90;;;;;;5069009;28;20041;-79
2024/01/18 07:33:50;;;;;;;4.07;1.00;;;-1.20;99.90;;;;;;5065364;28;20049;-80
2024/01/18 07:36:17;;;;;;;3.42;0.70;;;-1.30;99.90;;;;;;5066890;28;20051;-80
2024/01/18 07:38:43;;;;;;;3.03;0.90;;;-1.20;99.90;;;;;;5071326;28;20051;-79
2024/01/18 07:41:09;;;;;;;3.90;1.00;;;-1.20;99.90;;;;;;5071984;28;20503;-80
2024/01/18 07:43:35;;;;;;;2.85;1.10;;;-0.20;99.90;;;;;;5072135;28;20112;-80
2024/01/18 07:46:00;;;;;;;5.22;1.40;;;-1.20;99.90;;;;;;5072221;28;20036;-80
2024/01/18 07:48:26;;;;;;;6.63;1.48;;;-1.20;99.90;;;;;;5071738;28;20136;-79
2024/01/18 07:50:52;;;;;;;4.80;1.40;;;-1.20;99.90;;;;;;5072069;28;20040;-80
2024/01/18 07:53:18;;;;;;;5.15;1.50;;;-1.00;99.90;;;;;;5071676;28;20113;-81
2024/01/18 07:55:44;;;;;;;6.30;1.60;;;-1.20;99.90;;;;;;5072449;28;20554;-80
2024/01/18 07:58:10;;;;;;;5.68;1.50;;;-1.20;99.90;;;;;;5061187;28;20044;-79
2024/01/18 08:00:36;;;;;;;5.55;1.27;;;-1.20;99.90;;;;;;5046971;28;20058;-80
2024/01/18 08:03:01;;;;;;;2.83;0.80;;;-1.20;99.90;;;;;;5057721;28;20435;-80
2024/01/18 08:05:28;;;;;;;2.83;1.30;;;-1.20;99.90;;;;;;5062335;28;20040;-79
2024/01/18 08:07:54;;;;;;;5.30;1.23;;;-1.00;99.90;;;;;;5056508;28;20128;-80
2024/01/18 08:10:19;;;;;;;4.05;1.15;;;-1.20;99.90;;;;;;5052290;28;20045;-79
2024/01/18 08:12:45;;;;;;;5.25;1.17;;;-1.20;99.90;;;;;;5067745;28;20036;-81
2024/01/18 08:15:12;;;;;;;5.30;1.70;;;-1.20;99.90;;;;;;5070819;28;20412;-80
2024/01/18 08:17:37;;;;;;;4.47;0.88;;;-1.30;99.90;;;;;;5049062;28;20147;-80
2024/01/18 08:20:13;;;;;;;7.28;1.83;;;-1.30;99.90;;;;;;5058293;28;20543;-80
2024/01/18 08:22:43;;;;;;;2.83;0.82;;;-1.30;99.90;;;;;;5055169;28;20091;-80
2024/01/18 08:25:12;;;;;;;10.27;1.75;;;-1.30;99.90;;;;;;5064126;28;20519;-81
2024/01/18 08:27:43;;;;;;;2.20;0.80;;;-1.20;99.90;;;;;;5070298;28;20046;-80
2024/01/18 08:30:09;;;;;;;12.90;1.73;;;-1.30;99.90;;;;;;5068514;28;20125;-80
2024/01/18 08:32:34;;;;;;;6.45;2.08;;;-1.30;99.90;;;;;;5053174;28;20045;-81
2024/01/18 08:35:06;;;;;;;6.07;2.08;;;-1.30;99.90;;;;;;5053239;28;20049;-80
2024/01/18 08:37:33;;;;;;;7.07;1.50;;;-1.30;99.90;;;;;;5058116;28;20064;-79
2024/01/18 08:39:59;;;;;;;4.05;1.50;;;-0.50;99.90;;;;;;5059502;28;20051;-83
2024/01/18 08:42:25;;;;;;;3.85;1.35;;;-1.30;99.90;;;;;;5051601;28;20036;-78
2024/01/18 08:44:50;;;;;;;4.78;0.98;;;-0.60;99.90;;;;;;5050531;28;20084;-79
2024/01/18 08:47:16;;;;;;;4.63;1.13;;;-1.30;99.90;;;;;;5061652;28;20048;-79
2024/01/18 08:49:42;;;;;;;4.03;1.05;;;-0.20;99.90;;;;;;5053083;28;20041;-79
2024/01/18 08:52:08;;;;;;;3.83;0.95;;;-1.30;99.90;;;;;;5050346;28;20102;-79
2024/01/18 08:54:33;;;;;;;9.07;3.15;;;-1.30;99.90;;;;;;5051821;28;20045;-79
2024/01/18 08:56:59;;;;;;;6.50;1.85;;;-1.20;99.90;;;;;;5033771;28;20049;-80
2024/01/18 08:59:25;;;;;;;5.95;1.63;;;-1.20;99.90;;;;;;5055470;28;20097;-80
2024/01/18 09:01:51;;;;;;;4.78;1.65;;;-1.10;99.90;;;;;;5064963;28;20045;-79
2024/01/18 09:04:17;;;;;;;5.57;1.70;;;-1.10;99.90;;;;;;5055863;28;20477;-80
2024/01/18 09:06:43;;;;;;;4.03;1.60;;;-1.10;99.90;;;;;;5061647;28;20040;-79
2024/01/18 09:09:09;;;;;;;5.68;1.20;;;-0.60;99.90;;;;;;5074178;28;20135;-79
2024/01/18 09:11:36;;;;;;;3.92;1.90;;;-0.90;99.90;;;;;;5073428;28;20053;-79
2024/01/18 09:14:02;;;;;;;5.00;1.40;;;-0.90;99.90;;;;;;5053822;28;20053;-79
2024/01/18 09:16:28;;;;;;;8.55;1.90;;;0.30;99.90;;;;;;5054263;28;20041;-79
2024/01/18 09:18:53;;;;;;;4.07;2.08;;;-0.70;99.90;;;;;;5056069;28;20047;-80
2024/01/18 09:21:19;;;;;;;6.05;2.53;;;-0.10;99.90;;;;;;5073810;28;20094;-79
2024/01/18 09:23:45;;;;;;;3.78;1.75;;;-0.70;99.90;;;;;;5055655;28;20048;-79
2024/01/18 09:26:10;;;;;;;3.60;1.52;;;-0.70;99.90;;;;;;5054108;28;20484;-79
2024/01/18 09:28:36;;;;;;;2.65;1.13;;;-0.60;99.90;;;;;;5053624;28;20553;-79
2024/01/18 09:31:02;;;;;;;4.72;1.73;;;-0.70;99.90;;;;;;5055636;28;20171;-79
2024/01/18 09:33:27;;;;;;;4.38;1.73;;;-0.70;99.90;;;;;;5073454;28;20088;-79
2024/01/18 09:35:53;;;;;;;3.63;1.52;;;-0.70;99.90;;;;;;5055655;28;20056;-79
2024/01/18 09:38:19;;;;;;;3.95;1.35;;;-0.50;99.90;;;;;;5036838;28;20049;-80
2024/01/18 09:40:46;;;;;;;3.78;1.25;;;-0.70;99.90;;;;;;5054617;28;20455;-79
2024/01/18 09:43:15;;;;;;;5.82;1.60;;;-0.60;99.90;;;;;;5036871;28;20095;-80
2024/01/18 09:45:46;;;;;;;3.60;1.40;;;-0.60;99.90;;;;;;5053338;28;20056;-80
2024/01/18 09:48:12;;;;;;;7.20;1.00;;;0.40;99.90;;;;;;5072432;28;20143;-79
2024/01/18 09:50:45;;;;;;;4.53;1.10;;;-0.50;99.90;;;;;;5073675;28;20147;-79
2024/01/18 09:53:13;;;;;;;3.65;0.90;;;0.10;99.90;;;;;;5074123;28;20496;-79
2024/01/18 09:55:39;;;;;;;6.90;1.20;;;-0.40;99.90;;;;;;5073541;28;20044;-79
2024/01/18 09:58:11;;;;;;;5.13;0.93;;;-0.30;99.90;;;;;;5073239;28;20037;-79
2024/01/18 10:00:42;;;;;;;3.55;1.30;;;-0.30;99.90;;;;;;5052992;28;20141;-79
2024/01/18 10:03:07;;;;;;;7.97;1.45;;;-0.20;99.90;;;;;;5054115;28;20049;-79
2024/01/18 10:05:33;;;;;;;3.40;0.98;;;-0.10;99.90;;;;;;5053216;28;20128;-79
2024/01/18 10:07:59;;;;;;;4.03;0.80;;;0.00;99.90;;;;;;5052874;28;20449;-80
2024/01/18 10:10:25;;;;;;;5.30;0.88;;;0.10;99.90;;;;;;5053101;28;20093;-79
2024/01/18 10:12:50;;;;;;;4.90;1.02;;;0.30;99.90;;;;;;5044367;28;20076;-80
2024/01/18 10:15:31;;;;;;;2.60;0.80;;;0.40;99.90;;;;;;5072745;28;20036;-80
2024/01/18 10:17:56;;;;;;;2.47;0.70;;;0.50;99.90;;;;;;5072547;28;20054;-80
2024/01/18 10:20:23;;;;;;;4.68;1.25;;;0.50;99.90;;;;;;5072698;28;20128;-79
2024/01/18 10:22:49;;;;;;;5.32;0.75;;;0.50;99.90;;;;;;5072140;28;20065;-80
2024/01/18 10:25:16;;;;;;;4.93;1.02;;;0.60;99.90;;;;;;5056068;28;20491;-79
2024/01/18 10:27:42;;;;;;;5.25;0.70;;;1.00;99.90;;;;;;5072376;28;20109;-79
2024/01/18 10:30:12;;;;;;;3.17;0.77;;;0.70;99.90;;;;;;5071324;28;20053;-79
2024/01/18 10:32:39;;;;;;;2.75;0.70;;;0.60;99.90;;;;;;5071034;28;20473;-79
2024/01/18 10:35:05;;;;;;;12.43;1.15;;;0.60;99.90;;;;;;5072400;28;20036;-79
2024/01/18 10:37:32;;;;;;;3.00;0.63;;;0.60;99.90;;;;;;5072491;28;20052;-80
2024/01/18 10:39:58;;;;;;;3.15;0.65;;;0.50;99.90;;;;;;5072146;28;20150;-82
2024/01/18 10:42:23;;;;;;;3.85;0.60;;;0.50;99.90;;;;;;5067681;28;20135;-79
2024/01/18 10:44:50;;;;;;;3.08;0.80;;;0.50;99.90;;;;;;5069163;28;20182;-80
2024/01/18 10:47:16;;;;;;;2.83;0.70;;;0.50;99.90;;;;;;5059647;28;20040;-81
2024/01/18 10:49:45;;;;;;;2.33;0.60;;;0.80;99.90;;;;;;5065158;28;20043;-80
2024/01/18 10:52:15;;;;;;;5.00;0.75;;;0.60;99.90;;;;;;5071964;28;20121;-81
2024/01/18 10:54:41;;;;;;;3.78;0.60;;;0.90;99.90;;;;;;5059031;28;20041;-81
2024/01/18 10:57:07;;;;;;;3.03;0.70;;;0.70;99.90;;;;;;5072080;28;20068;-81
2024/01/18 10:59:32;;;;;;;3.50;0.60;;;1.70;99.90;;;;;;5055347;28;20447;-80
2024/01/18 11:02:00;;;;;;;3.45;0.60;;;0.90;99.90;;;;;;5055738;28;20049;-81
2024/01/18 11:04:27;;;;;;;5.30;1.05;;;1.00;99.90;;;;;;5053412;28;20068;-80
2024/01/18 11:06:55;;;;;;;3.67;0.70;;;1.40;99.90;;;;;;5051552;28;20120;-79
2024/01/18 11:09:26;;;;;;;3.72;0.80;;;1.10;99.90;;;;;;5071197;28;20063;-80
2024/01/18 11:11:53;;;;;;;8.88;2.30;;;1.10;99.90;;;;;;5056652;28;20677;-80
2024/01/18 11:14:20;;;;;;;7.45;1.42;;;1.20;99.90;;;;;;5062809;28;20052;-80
2024/01/18 11:16:45;;;;;;;3.45;0.90;;;1.10;99.90;;;;;;5056822;28;20472;-80
2024/01/18 11:19:11;;;;;;;4.70;1.13;;;1.10;99.90;;;;;;5070057;28;20074;-80
2024/01/18 11:21:39;;;;;;;3.13;0.98;;;1.10;99.90;;;;;;5070067;28;20428;-80
2024/01/18 11:24:12;;;;;;;3.28;0.75;;;1.60;99.90;;;;;;5060210;28;20403;-80
2024/01/18 11:26:38;;;;;;;3.05;0.80;;;1.10;99.90;;;;;;5071631;28;20786;-80
2024/01/18 11:29:18;;;;;;;6.05;1.25;;;1.10;99.90;;;;;;5070863;28;20044;-82
2024/01/18 11:31:49;;;;;;;5.68;0.63;;;1.30;99.90;;;;;;5070966;28;20048;-81
2024/01/18 11:34:34;;;;;;;2.50;0.63;;;1.10;99.90;;;;;;5059903;28;20052;-80
2024/01/18 11:37:14;;;;;;;4.50;0.65;;;1.20;99.90;;;;;;5069861;28;20053;-82
2024/01/18 11:40:05;;;;;;;5.10;0.73;;;1.00;99.90;;;;;;5037998;28;20119;-81
2024/01/18 11:42:36;;;;;;;5.10;1.30;;;1.00;99.90;;;;;;5051907;28;20052;-81
2024/01/18 11:45:29;;;;;;;9.38;4.32;;;1.00;99.90;;;;;;5052840;28;20134;-82
2024/01/18 11:47:55;;;;;;;5.13;2.00;;;1.00;99.90;;;;;;5057478;28;20099;-81
2024/01/18 11:50:21;;;;;;;16.80;6.78;;;1.80;99.90;;;;;;5059718;28;20075;-82
2024/01/18 11:52:47;;;;;;;12.43;3.13;;;1.40;99.90;;;;;;5056450;28;20130;-82
2024/01/18 11:55:17;;;;;;;26.00;11.32;;;1.40;99.90;;;;;;5052871;28;20037;-81
2024/01/18 11:57:46;;;;;;;9.93;2.90;;;1.80;99.90;;;;;;5053964;28;20052;-81
2024/01/18 12:00:13;;;;;;;13.90;5.60;;;2.40;99.90;;;;;;5054050;28;20048;-80
2024/01/18 12:02:42;;;;;;;10.50;3.03;;;1.90;99.90;;;;;;5069585;28;20056;-81
2024/01/18 12:05:08;;;;;;;6.85;1.05;;;2.00;99.90;;;;;;5054148;28;20060;-81
2024/01/18 12:07:34;;;;;;;3.92;1.63;;;2.00;99.90;;;;;;5052286;28;20059;-79
2024/01/18 12:10:04;;;;;;;4.25;0.90;;;2.00;99.90;;;;;;5051451;28;20131;-80
2024/01/18 12:12:30;;;;;;;3.20;0.68;;;2.10;99.90;;;;;;5071914;28;20055;-80
2024/01/18 12:14:55;;;;;;;4.35;0.70;;;2.10;99.90;;;;;;5064081;28;20392;-79
2024/01/18 12:17:21;;;;;;;4.35;0.70;;;2.10;99.90;;;;;;5057041;28;20045;-81
2024/01/18 12:19:47;;;;;;;3.03;0.98;;;2.20;99.90;;;;;;5068055;28;20040;-82
2024/01/18 12:22:18;;;;;;;8.82;1.30;;;2.20;99.90;;;;;;5062084;28;20404;-81
2024/01/18 12:24:48;;;;;;;2.00;0.68;;;2.20;99.90;;;;;;5069610;28;20114;-82
2024/01/18 12:27:15;;;;;;;3.80;0.60;;;2.20;99.90;;;;;;5059629;28;20059;-81
2024/01/18 12:29:41;;;;;;;8.45;1.90;;;2.30;99.90;;;;;;5052114;28;20033;-82
2024/01/18 12:32:10;;;;;;;4.88;0.60;;;2.40;99.90;;;;;;5052677;28;20108;-81
2024/01/18 12:34:37;;;;;;;2.10;0.60;;;2.40;99.90;;;;;;5052578;28;20511;-81
2024/01/18 12:37:03;;;;;;;3.95;1.00;;;2.50;99.90;;;;;;5060744;28;20429;-81
2024/01/18 12:39:34;;;;;;;3.42;0.52;;;2.50;99.90;;;;;;5069862;28;20053;-82
2024/01/18 12:42:00;;;;;;;3.15;0.57;;;2.60;99.90;;;;;;5070568;28;20473;-80
2024/01/18 12:44:26;;;;;;;4.40;0.68;;;2.50;99.90;;;;;;5060210;28;20088;-81